Time;durP1;ratioP1;P1;durP2;ratioP2;P2;SDS_P1;SDS_P2;PMS_P1;PMS_P2;Temp;Humidity;BMP_temperature;BMP_pressure;BME280_temperature;BME280_humidity;BME280_pressure;Samples;Min_cycle;Max_cycle;Signal;HPM_P1;HPM_P2
2020/12/03 00:01:41;;;;;;;1.75;1.00;;;;;;;;;;4983610;28;20029;-90
2020/12/03 00:04:06;;;;;;;0.85;0.85;;;;;;;;;;4995961;28;20034;-83
2020/12/03 00:06:34;;;;;;;0.10;0.10;;;;;;;;;;4966530;28;20136;-83
2020/12/03 00:09:02;;;;;;;0.40;0.40;;;;;;;;;;4983740;28;20026;-83
2020/12/03 00:11:30;;;;;;;0.43;0.43;;;;;;;;;;4997707;28;20011;-84
2020/12/03 00:13:56;;;;;;;0.05;0.05;;;;;;;;;;4981071;28;20022;-87
2020/12/03 00:16:23;;;;;;;0.65;0.65;;;;;;;;;;4979054;28;20076;-83
2020/12/03 00:18:49;;;;;;;4.30;2.15;;;;;;;;;;4983073;28;20042;-88
2020/12/03 00:21:14;;;;;;;0.95;0.95;;;;;;;;;;4981685;28;20034;-85
2020/12/03 00:23:41;;;;;;;0.05;0.05;;;;;;;;;;4998205;28;20034;-84
2020/12/03 00:26:09;;;;;;;3.13;0.57;;;;;;;;;;4981999;28;20117;-85
2020/12/03 00:28:38;;;;;;;0.88;0.88;;;;;;;;;;4984357;28;20097;-87
2020/12/03 00:31:04;;;;;;;0.38;0.38;;;;;;;;;;4983305;28;20015;-84
2020/12/03 00:33:30;;;;;;;0.28;0.28;;;;;;;;;;5002491;28;20042;-83
2020/12/03 00:35:56;;;;;;;0.77;0.57;;;;;;;;;;4990620;28;20474;-85
2020/12/03 00:38:22;;;;;;;0.65;0.65;;;;;;;;;;5000210;28;20038;-87
2020/12/03 00:40:48;;;;;;;4.65;1.02;;;;;;;;;;4999254;28;20367;-85
2020/12/03 00:43:15;;;;;;;1.98;0.65;;;;;;;;;;4999434;28;20031;-84
2020/12/03 00:45:40;;;;;;;1.98;1.73;;;;;;;;;;4998639;28;20047;-86
2020/12/03 00:48:06;;;;;;;5.82;1.30;;;;;;;;;;4982530;28;20078;-85
2020/12/03 00:50:31;;;;;;;0.00;0.00;;;;;;;;;;5000287;28;20613;-83
2020/12/03 00:52:57;;;;;;;0.45;0.45;;;;;;;;;;4974041;28;20046;-87
2020/12/03 00:55:22;;;;;;;0.20;0.20;;;;;;;;;;4984980;28;20022;-84
2020/12/03 00:57:51;;;;;;;0.20;0.20;;;;;;;;;;4999194;28;20033;-84
2020/12/03 01:00:18;;;;;;;0.55;0.50;;;;;;;;;;4986437;28;20037;-84
2020/12/03 01:02:43;;;;;;;0.10;0.10;;;;;;;;;;5002181;28;20022;-84
2020/12/03 01:05:10;;;;;;;5.38;1.85;;;;;;;;;;4987208;28;20475;-84
2020/12/03 01:07:36;;;;;;;3.65;1.65;;;;;;;;;;4981907;28;20101;-86
2020/12/03 01:10:03;;;;;;;1.83;1.70;;;;;;;;;;4985798;28;20549;-83
2020/12/03 01:12:29;;;;;;;0.10;0.10;;;;;;;;;;4999625;28;20029;-86
2020/12/03 01:14:56;;;;;;;0.45;0.45;;;;;;;;;;4986674;28;20057;-84
2020/12/03 01:17:22;;;;;;;0.32;0.32;;;;;;;;;;4983616;28;20217;-86
2020/12/03 01:19:47;;;;;;;0.82;0.82;;;;;;;;;;4992351;28;20191;-82
2020/12/03 01:22:13;;;;;;;0.85;0.85;;;;;;;;;;5000203;28;20443;-88
2020/12/03 01:24:40;;;;;;;0.75;0.75;;;;;;;;;;4988023;28;20242;-85
2020/12/03 01:27:05;;;;;;;3.10;2.20;;;;;;;;;;4993441;28;20706;-84
2020/12/03 01:29:31;;;;;;;1.27;1.27;;;;;;;;;;4976731;28;20054;-82
2020/12/03 01:31:57;;;;;;;0.90;0.90;;;;;;;;;;4992478;28;20026;-85
2020/12/03 01:34:22;;;;;;;0.52;0.52;;;;;;;;;;4971173;28;20771;-84
2020/12/03 01:36:49;;;;;;;1.10;0.90;;;;;;;;;;4987410;28;20129;-84
2020/12/03 01:39:16;;;;;;;3.25;3.05;;;;;;;;;;4983785;28;20045;-84
2020/12/03 01:41:42;;;;;;;0.90;0.85;;;;;;;;;;4982179;28;20509;-86
2020/12/03 01:44:08;;;;;;;0.30;0.30;;;;;;;;;;4984029;28;20034;-85
2020/12/03 01:46:34;;;;;;;0.38;0.38;;;;;;;;;;5004646;28;20045;-84
2020/12/03 01:49:04;;;;;;;0.00;0.00;;;;;;;;;;4998863;28;20054;-84
2020/12/03 01:51:45;;;;;;;2.42;2.33;;;;;;;;;;4992675;28;20077;-86
2020/12/03 01:54:14;;;;;;;0.68;0.68;;;;;;;;;;4984643;28;20018;-85
2020/12/03 01:56:56;;;;;;;0.17;0.17;;;;;;;;;;4979273;28;20031;-85
2020/12/03 01:59:27;;;;;;;0.57;0.57;;;;;;;;;;4987751;28;20114;-84
2020/12/03 02:01:55;;;;;;;0.10;0.10;;;;;;;;;;4988769;28;20061;-83
2020/12/03 02:04:20;;;;;;;0.50;0.50;;;;;;;;;;5001354;28;20026;-86
2020/12/03 02:06:48;;;;;;;0.20;0.20;;;;;;;;;;4985933;28;20026;-86
2020/12/03 02:09:14;;;;;;;1.75;1.35;;;;;;;;;;4970357;28;20104;-84
2020/12/03 02:11:40;;;;;;;1.73;1.13;;;;;;;;;;4999375;28;20518;-85
2020/12/03 02:14:07;;;;;;;0.93;0.93;;;;;;;;;;4969102;28;20117;-83
2020/12/03 02:16:35;;;;;;;1.23;1.13;;;;;;;;;;4984844;28;20176;-85
2020/12/03 02:19:01;;;;;;;0.25;0.25;;;;;;;;;;4983838;28;21536;-86
2020/12/03 02:21:26;;;;;;;1.20;0.65;;;;;;;;;;4982211;28;20459;-85
2020/12/03 02:23:52;;;;;;;0.52;0.52;;;;;;;;;;4985514;28;20153;-84
2020/12/03 02:26:18;;;;;;;2.10;1.58;;;;;;;;;;4986728;28;20030;-85
2020/12/03 02:28:44;;;;;;;0.82;0.82;;;;;;;;;;4985060;28;20069;-84
2020/12/03 02:31:10;;;;;;;1.50;1.40;;;;;;;;;;4986451;28;20517;-86
2020/12/03 02:33:35;;;;;;;0.68;0.68;;;;;;;;;;4999459;28;20101;-84
2020/12/03 02:36:01;;;;;;;0.45;0.45;;;;;;;;;;4977383;28;20109;-85
2020/12/03 02:38:29;;;;;;;1.95;1.35;;;;;;;;;;4971680;28;20419;-84
2020/12/03 02:40:59;;;;;;;0.20;0.20;;;;;;;;;;4996860;28;20035;-81
2020/12/03 02:43:25;;;;;;;0.20;0.20;;;;;;;;;;4984794;28;20030;-82
2020/12/03 02:45:51;;;;;;;1.25;0.55;;;;;;;;;;5000115;28;20022;-83
2020/12/03 02:48:16;;;;;;;0.25;0.25;;;;;;;;;;5015013;28;20145;-82
2020/12/03 02:50:42;;;;;;;0.52;0.50;;;;;;;;;;4988470;28;20014;-84
2020/12/03 02:53:09;;;;;;;0.88;0.88;;;;;;;;;;4986626;28;20022;-82
2020/12/03 02:55:35;;;;;;;2.45;2.25;;;;;;;;;;4984805;28;20063;-86
2020/12/03 02:58:00;;;;;;;2.05;1.02;;;;;;;;;;5002122;28;20423;-85
2020/12/03 03:00:26;;;;;;;0.45;0.45;;;;;;;;;;4977656;28;20026;-86
2020/12/03 03:02:51;;;;;;;1.17;1.10;;;;;;;;;;4986874;28;20058;-84
2020/12/03 03:05:17;;;;;;;2.90;0.75;;;;;;;;;;4961257;28;20057;-86
2020/12/03 03:07:42;;;;;;;3.03;2.72;;;;;;;;;;4970322;28;20089;-83
2020/12/03 03:10:08;;;;;;;2.92;2.50;;;;;;;;;;4990007;28;20098;-87
2020/12/03 03:12:34;;;;;;;0.00;0.00;;;;;;;;;;4998397;28;20036;-83
2020/12/03 03:15:00;;;;;;;2.35;1.10;;;;;;;;;;4993612;28;20110;-84
2020/12/03 03:17:26;;;;;;;1.05;1.00;;;;;;;;;;4986339;28;20122;-83
2020/12/03 03:19:52;;;;;;;1.63;1.52;;;;;;;;;;4972960;28;20046;-84
2020/12/03 03:22:18;;;;;;;0.45;0.45;;;;;;;;;;4971633;28;20031;-83
2020/12/03 03:24:44;;;;;;;0.90;0.90;;;;;;;;;;4982954;28;20061;-84
2020/12/03 03:27:12;;;;;;;1.52;1.33;;;;;;;;;;4986360;28;20121;-86
2020/12/03 03:29:40;;;;;;;0.57;0.57;;;;;;;;;;4995069;28;20154;-84
2020/12/03 03:32:06;;;;;;;1.85;1.17;;;;;;;;;;4970872;28;20079;-86
2020/12/03 03:34:31;;;;;;;4.97;1.73;;;;;;;;;;4982687;28;20027;-84
2020/12/03 03:36:57;;;;;;;2.38;2.17;;;;;;;;;;4998817;28;20102;-86
2020/12/03 03:39:24;;;;;;;1.33;1.23;;;;;;;;;;4983654;28;20015;-84
2020/12/03 03:41:51;;;;;;;0.93;0.93;;;;;;;;;;4982943;28;20088;-86
2020/12/03 03:44:16;;;;;;;0.73;0.52;;;;;;;;;;4984467;28;20117;-83
2020/12/03 03:46:42;;;;;;;1.55;1.52;;;;;;;;;;4988827;28;20117;-86
2020/12/03 03:49:07;;;;;;;1.98;1.88;;;;;;;;;;4987168;28;20167;-83
2020/12/03 03:51:33;;;;;;;0.85;0.40;;;;;;;;;;4968761;28;20090;-86
2020/12/03 03:53:59;;;;;;;0.80;0.80;;;;;;;;;;4980603;28;20030;-84
2020/12/03 03:56:24;;;;;;;1.33;1.23;;;;;;;;;;4984017;28;20033;-84
2020/12/03 03:58:50;;;;;;;0.35;0.35;;;;;;;;;;4984005;28;20029;-82
2020/12/03 04:01:16;;;;;;;2.60;2.40;;;;;;;;;;4996833;28;20572;-86
2020/12/03 04:03:42;;;;;;;7.60;2.45;;;;;;;;;;4982173;28;20038;-85
2020/12/03 04:06:07;;;;;;;1.45;1.35;;;;;;;;;;4970740;28;20034;-85
2020/12/03 04:08:33;;;;;;;2.00;1.05;;;;;;;;;;4982635;28;20033;-85
2020/12/03 04:10:59;;;;;;;0.93;0.93;;;;;;;;;;4980815;28;20036;-82
2020/12/03 04:13:25;;;;;;;3.15;0.82;;;;;;;;;;4978548;28;20121;-84
2020/12/03 04:15:51;;;;;;;0.77;0.77;;;;;;;;;;4981441;28;20057;-83
2020/12/03 04:18:17;;;;;;;1.73;1.63;;;;;;;;;;4999861;28;20030;-82
2020/12/03 04:20:43;;;;;;;0.95;0.90;;;;;;;;;;4986682;28;20022;-85
2020/12/03 04:23:09;;;;;;;0.73;0.73;;;;;;;;;;4996625;28;20028;-86
2020/12/03 04:25:35;;;;;;;0.70;0.70;;;;;;;;;;4972041;28;20157;-82
2020/12/03 04:28:03;;;;;;;0.63;0.63;;;;;;;;;;4995770;28;20028;-87
2020/12/03 04:30:29;;;;;;;0.50;0.50;;;;;;;;;;4973610;28;20076;-85
2020/12/03 04:32:54;;;;;;;0.65;0.65;;;;;;;;;;4990539;28;20090;-81
2020/12/03 04:35:20;;;;;;;2.92;1.42;;;;;;;;;;4967256;28;20150;-86
2020/12/03 04:37:47;;;;;;;0.00;0.00;;;;;;;;;;4990048;28;20111;-83
2020/12/03 04:40:20;;;;;;;0.20;0.20;;;;;;;;;;4986184;28;20633;-84
2020/12/03 04:42:46;;;;;;;0.50;0.50;;;;;;;;;;4980671;28;20031;-81
2020/12/03 04:45:34;;;;;;;0.82;0.82;;;;;;;;;;4989313;28;20371;-83
2020/12/03 04:48:18;;;;;;;3.03;1.33;;;;;;;;;;4983944;28;20474;-88
2020/12/03 04:50:52;;;;;;;1.05;1.05;;;;;;;;;;4984506;28;20038;-85
2020/12/03 04:53:37;;;;;;;0.63;0.63;;;;;;;;;;4986247;28;20027;-86
2020/12/03 04:56:02;;;;;;;;;;;;;;;;;;4984338;28;20030;-83
2020/12/03 04:58:36;;;;;;;0.00;0.00;;;;;;;;;;5012835;28;20401;-85
2020/12/03 05:01:10;;;;;;;0.68;0.65;;;;;;;;;;4983971;28;20117;-86
2020/12/03 05:03:45;;;;;;;0.90;0.90;;;;;;;;;;4980758;28;20081;-84
2020/12/03 05:06:29;;;;;;;5.93;2.80;;;;;;;;;;4985350;28;20113;-85
2020/12/03 05:09:00;;;;;;;0.80;0.77;;;;;;;;;;4980677;28;20018;-85
2020/12/03 05:11:29;;;;;;;0.20;0.20;;;;;;;;;;4981728;28;20030;-84
2020/12/03 05:14:15;;;;;;;0.25;0.25;;;;;;;;;;4981055;28;20026;-86
2020/12/03 05:16:48;;;;;;;0.10;0.10;;;;;;;;;;4999392;28;20046;-85
2020/12/03 05:19:17;;;;;;;0.30;0.30;;;;;;;;;;4999781;28;20113;-86
2020/12/03 05:21:45;;;;;;;0.00;0.00;;;;;;;;;;4988574;28;20018;-86
2020/12/03 05:24:13;;;;;;;13.32;1.45;;;;;;;;;;4985628;28;20064;-84
2020/12/03 05:26:38;;;;;;;3.95;3.60;;;;;;;;;;5003455;28;20121;-85
2020/12/03 05:29:06;;;;;;;1.23;1.13;;;;;;;;;;4987573;28;20022;-85
2020/12/03 05:31:41;;;;;;;1.02;1.02;;;;;;;;;;4993459;28;20085;-84
2020/12/03 05:34:08;;;;;;;0.00;0.00;;;;;;;;;;5010147;28;20399;-82
2020/12/03 05:36:39;;;;;;;0.73;0.65;;;;;;;;;;4991541;28;20031;-85
2020/12/03 05:39:07;;;;;;;0.73;0.73;;;;;;;;;;4986811;28;20030;-84
2020/12/03 05:41:35;;;;;;;1.75;1.65;;;;;;;;;;4986561;28;20031;-85
2020/12/03 05:44:19;;;;;;;0.13;0.13;;;;;;;;;;4994942;28;20561;-84
2020/12/03 05:46:45;;;;;;;1.55;0.55;;;;;;;;;;5003288;28;20479;-85
2020/12/03 05:49:17;;;;;;;0.98;0.98;;;;;;;;;;4989694;28;20120;-83
2020/12/03 05:51:42;;;;;;;0.43;0.43;;;;;;;;;;4986877;28;20022;-87
2020/12/03 05:54:08;;;;;;;0.00;0.00;;;;;;;;;;4986805;28;20030;-87
2020/12/03 05:56:33;;;;;;;0.82;0.82;;;;;;;;;;4990476;28;20026;-83
2020/12/03 05:59:18;;;;;;;2.35;2.00;;;;;;;;;;5007730;28;20041;-82
2020/12/03 06:02:07;;;;;;;1.45;1.35;;;;;;;;;;4990800;28;20052;-85
2020/12/03 06:04:43;;;;;;;0.90;0.90;;;;;;;;;;4985128;28;20399;-87
2020/12/03 06:07:08;;;;;;;2.25;2.13;;;;;;;;;;4998655;28;20080;-89
2020/12/03 06:09:37;;;;;;;1.83;1.80;;;;;;;;;;4985926;28;20026;-85
2020/12/03 06:12:12;;;;;;;0.65;0.65;;;;;;;;;;4987182;28;20022;-84
2020/12/03 06:14:40;;;;;;;0.40;0.40;;;;;;;;;;4987588;28;20026;-85
2020/12/03 06:17:30;;;;;;;0.10;0.10;;;;;;;;;;4985327;28;20030;-84
2020/12/03 06:20:14;;;;;;;0.45;0.45;;;;;;;;;;4999735;28;20058;-84
2020/12/03 06:22:53;;;;;;;0.43;0.43;;;;;;;;;;5016202;28;20026;-82
2020/12/03 06:25:18;;;;;;;0.63;0.63;;;;;;;;;;4991957;28;20057;-84
2020/12/03 06:28:00;;;;;;;0.00;0.00;;;;;;;;;;4988868;28;20030;-85
2020/12/03 06:30:30;;;;;;;1.20;1.20;;;;;;;;;;5000617;28;20114;-84
2020/12/03 06:33:00;;;;;;;9.73;2.17;;;;;;;;;;4984626;28;20042;-83
2020/12/03 06:35:35;;;;;;;2.08;1.00;;;;;;;;;;4983339;28;20410;-85
2020/12/03 06:38:04;;;;;;;2.17;1.27;;;;;;;;;;4997595;28;20067;-83
2020/12/03 06:40:33;;;;;;;1.30;1.23;;;;;;;;;;4992600;28;20109;-83
2020/12/03 06:43:05;;;;;;;1.92;1.35;;;;;;;;;;4986588;28;20130;-83
2020/12/03 06:45:37;;;;;;;0.80;0.80;;;;;;;;;;4991572;28;20443;-86
2020/12/03 06:48:21;;;;;;;0.90;0.90;;;;;;;;;;4982582;28;20136;-84
2020/12/03 06:50:46;;;;;;;0.35;0.35;;;;;;;;;;5001777;28;20439;-85
2020/12/03 06:53:30;;;;;;;0.20;0.20;;;;;;;;;;4990962;28;20056;-84
2020/12/03 06:56:14;;;;;;;1.60;1.50;;;;;;;;;;4999943;28;20109;-86
2020/12/03 06:58:47;;;;;;;0.20;0.20;;;;;;;;;;4999566;28;20035;-88
2020/12/03 07:01:38;;;;;;;0.60;0.60;;;;;;;;;;4988243;28;20348;-85
2020/12/03 07:04:19;;;;;;;0.00;0.00;;;;;;;;;;4987669;28;20027;-86
2020/12/03 07:07:04;;;;;;;0.38;0.38;;;;;;;;;;4988148;28;20034;-85
2020/12/03 07:09:33;;;;;;;0.13;0.13;;;;;;;;;;4989496;28;20031;-84
2020/12/03 07:12:18;;;;;;;0.55;0.55;;;;;;;;;;4989624;28;20465;-85
2020/12/03 07:14:43;;;;;;;0.55;0.50;;;;;;;;;;4977178;28;20133;-88
2020/12/03 07:17:28;;;;;;;0.57;0.57;;;;;;;;;;4999063;28;20117;-84
2020/12/03 07:19:54;;;;;;;;;;;;;;;;;;4990606;28;20045;-83
2020/12/03 07:22:31;;;;;;;0.00;0.00;;;;;;;;;;5015284;28;19982;-86
2020/12/03 07:24:59;;;;;;;0.85;0.75;;;;;;;;;;4992212;28;20034;-85
2020/12/03 07:27:35;;;;;;;0.10;0.10;;;;;;;;;;4996575;28;20098;-86
2020/12/03 07:30:34;;;;;;;0.00;0.00;;;;;;;;;;4983917;28;20423;-86
2020/12/03 07:33:10;;;;;;;0.00;0.00;;;;;;;;;;4988138;28;20300;-85
2020/12/03 07:36:05;;;;;;;1.17;1.17;;;;;;;;;;4988172;28;20053;-86
2020/12/03 07:38:41;;;;;;;0.20;0.20;;;;;;;;;;4968234;28;20042;-84
2020/12/03 07:41:14;;;;;;;0.40;0.40;;;;;;;;;;4984449;28;20038;-87
2020/12/03 07:43:47;;;;;;;0.05;0.05;;;;;;;;;;4980152;28;20062;-85
2020/12/03 07:46:36;;;;;;;0.30;0.30;;;;;;;;;;4984839;28;20046;-83
2020/12/03 07:49:32;;;;;;;1.33;1.33;;;;;;;;;;4983120;28;20050;-86
2020/12/03 07:52:36;;;;;;;0.63;0.63;;;;;;;;;;4984967;28;20030;-85
2020/12/03 07:55:26;;;;;;;0.98;0.98;;;;;;;;;;4950139;28;20061;-83
2020/12/03 07:58:27;;;;;;;0.10;0.10;;;;;;;;;;4954286;28;20400;-82
2020/12/03 08:01:15;;;;;;;0.65;0.65;;;;;;;;;;4983541;28;20038;-85
2020/12/03 08:03:45;;;;;;;2.38;0.93;;;;;;;;;;4995416;28;20257;-85
2020/12/03 08:06:29;;;;;;;0.43;0.43;;;;;;;;;;4986660;28;20038;-85
2020/12/03 08:09:02;;;;;;;0.50;0.50;;;;;;;;;;4982226;28;20116;-84
2020/12/03 08:11:46;;;;;;;1.38;0.82;;;;;;;;;;4980674;28;20042;-84
2020/12/03 08:14:21;;;;;;;0.40;0.40;;;;;;;;;;4982101;28;20030;-85
2020/12/03 08:17:04;;;;;;;;;;;;;;;;;;4990038;28;20049;-84
2020/12/03 08:19:37;;;;;;;0.00;0.00;;;;;;;;;;5011654;28;19918;-83
2020/12/03 08:22:23;;;;;;;1.20;1.17;;;;;;;;;;4983860;28;20034;-82
2020/12/03 08:24:51;;;;;;;0.43;0.43;;;;;;;;;;4984449;28;20117;-84
2020/12/03 08:27:19;;;;;;;2.17;1.98;;;;;;;;;;4986908;28;20097;-87
2020/12/03 08:29:45;;;;;;;1.20;1.08;;;;;;;;;;4996983;28;20035;-85
2020/12/03 08:32:10;;;;;;;2.05;1.05;;;;;;;;;;4988646;28;20109;-86
2020/12/03 08:35:07;;;;;;;;;;;;;;;;;;;;;
2020/12/03 08:38:01;;;;;;;1.38;1.27;;;;;;;;;;4997534;28;20110;-88
2020/12/03 08:40:37;;;;;;;0.32;0.32;;;;;;;;;;4985090;28;20011;-84
2020/12/03 08:43:04;;;;;;;0.17;0.17;;;;;;;;;;4989279;28;20055;-88
2020/12/03 08:45:41;;;;;;;0.63;0.63;;;;;;;;;;4989000;28;20033;-88
2020/12/03 08:48:24;;;;;;;0.95;0.95;;;;;;;;;;4977921;28;20061;-87
2020/12/03 08:50:57;;;;;;;1.15;1.15;;;;;;;;;;4981624;28;20067;-86
2020/12/03 08:53:36;;;;;;;0.93;0.93;;;;;;;;;;4996271;28;20176;-85
2020/12/03 08:56:33;;;;;;;1.13;1.02;;;;;;;;;;4983423;28;20023;-83
2020/12/03 09:02:29;;;;;;;0.52;0.52;;;;;;;;;;4986933;28;20034;-84
2020/12/03 09:04:59;;;;;;;0.10;0.10;;;;;;;;;;4985706;28;20057;-85
2020/12/03 09:07:29;;;;;;;0.40;0.40;;;;;;;;;;4988656;28;20105;-87
2020/12/03 09:09:56;;;;;;;0.75;0.40;;;;;;;;;;5001887;28;20162;-85
2020/12/03 09:12:28;;;;;;;0.47;0.47;;;;;;;;;;4986292;28;20420;-88
2020/12/03 09:29:10;;;;;;;0.00;0.00;;;;;;;;;;4994213;22;20402;-63
2020/12/03 09:31:36;;;;;;;4.28;1.75;;;;;;;;;;4940249;28;20039;-62
2020/12/03 09:34:03;;;;;;;0.82;0.82;;;;;;;;;;4941088;28;20027;-61
2020/12/03 09:36:32;;;;;;;1.70;1.55;;;;;;;;;;4940726;28;20057;-62
2020/12/03 09:39:00;;;;;;;0.38;0.38;;;;;;;;;;4945934;28;20084;-64
2020/12/03 09:41:28;;;;;;;0.75;0.75;;;;;;;;;;4939956;28;20184;-63
2020/12/03 09:43:59;;;;;;;0.75;0.75;;;;;;;;;;4939695;28;20141;-62
2020/12/03 09:46:28;;;;;;;0.32;0.32;;;;;;;;;;4939869;28;20053;-61
2020/12/03 09:48:55;;;;;;;0.52;0.52;;;;;;;;;;4941035;28;20263;-61
2020/12/03 09:51:23;;;;;;;0.75;0.75;;;;;;;;;;4939468;28;20387;-64
2020/12/03 09:53:51;;;;;;;0.98;0.98;;;;;;;;;;4941371;28;20027;-62
2020/12/03 09:56:20;;;;;;;0.82;0.82;;;;;;;;;;4938667;28;20363;-63
2020/12/03 09:58:57;;;;;;;2.22;2.13;;;;;;;;;;4938977;28;20746;-62
2020/12/03 10:01:41;;;;;;;1.40;1.40;;;;;;;;;;4939766;28;20094;-61
2020/12/03 10:04:27;;;;;;;2.50;1.45;;;;;;;;;;4939440;28;20105;-62
2020/12/03 10:07:06;;;;;;;1.30;1.30;;;;;;;;;;4938051;28;20047;-62
2020/12/03 10:09:54;;;;;;;0.00;0.00;;;;;;;;;;4940560;28;20042;-63
2020/12/03 10:12:44;;;;;;;0.28;0.28;;;;;;;;;;4922245;28;20042;-62
2020/12/03 10:15:17;;;;;;;2.10;1.40;;;;;;;;;;4939472;28;20122;-61
2020/12/03 10:17:44;;;;;;;;;;;;;;;;;;4954110;28;20027;-62
2020/12/03 10:20:10;;;;;;;0.40;0.40;;;;;;;;;;4940340;28;19925;-61
2020/12/03 10:22:54;;;;;;;0.77;0.77;;;;;;;;;;4944256;28;20125;-62
2020/12/03 10:25:25;;;;;;;1.17;1.17;;;;;;;;;;4938435;28;20085;-62
2020/12/03 10:28:12;;;;;;;0.98;0.52;;;;;;;;;;4944427;28;20051;-63
2020/12/03 10:30:40;;;;;;;0.65;0.65;;;;;;;;;;4939619;28;20035;-63
2020/12/03 10:33:15;;;;;;;0.00;0.00;;;;;;;;;;4941385;28;20032;-63
2020/12/03 10:35:45;;;;;;;1.25;0.30;;;;;;;;;;4935023;28;20050;-61
2020/12/03 10:38:34;;;;;;;0.22;0.22;;;;;;;;;;4938275;28;20043;-61
2020/12/03 10:41:02;;;;;;;0.75;0.75;;;;;;;;;;4931745;28;20050;-63
2020/12/03 10:43:36;;;;;;;5.93;1.48;;;;;;;;;;4939955;28;20127;-62
2020/12/03 10:46:10;;;;;;;0.10;0.10;;;;;;;;;;4939436;28;20046;-64
2020/12/03 10:48:36;;;;;;;0.30;0.30;;;;;;;;;;4939219;28;20038;-61
2020/12/03 10:51:08;;;;;;;0.63;0.63;;;;;;;;;;4936145;28;20075;-61
2020/12/03 10:53:39;;;;;;;1.75;1.65;;;;;;;;;;4939244;28;20078;-62
2020/12/03 10:56:06;;;;;;;1.20;1.10;;;;;;;;;;4937706;28;20338;-63
2020/12/03 10:59:02;;;;;;;0.52;0.52;;;;;;;;;;4938583;28;20332;-62
2020/12/03 11:01:31;;;;;;;0.35;0.35;;;;;;;;;;4938573;28;20250;-62
2020/12/03 11:03:58;;;;;;;4.38;0.70;;;;;;;;;;4941868;28;20521;-62
2020/12/03 11:06:26;;;;;;;0.77;0.32;;;;;;;;;;4943012;28;20130;-63
2020/12/03 11:08:52;;;;;;;0.08;0.08;;;;;;;;;;4942206;28;20038;-61
2020/12/03 11:11:20;;;;;;;0.10;0.10;;;;;;;;;;4939118;28;20144;-63
2020/12/03 11:13:48;;;;;;;0.00;0.00;;;;;;;;;;4939256;28;20069;-62
2020/12/03 11:16:15;;;;;;;0.00;0.00;;;;;;;;;;4938428;28;20030;-64
2020/12/03 11:18:48;;;;;;;0.15;0.15;;;;;;;;;;4938494;28;20043;-62
2020/12/03 11:21:20;;;;;;;0.47;0.47;;;;;;;;;;4938144;28;20031;-62
2020/12/03 11:24:12;;;;;;;2.72;0.98;;;;;;;;;;4938701;28;20563;-61
2020/12/03 11:26:42;;;;;;;0.08;0.08;;;;;;;;;;4934642;28;20053;-62
2020/12/03 11:29:12;;;;;;;0.43;0.43;;;;;;;;;;4939134;28;20494;-61
2020/12/03 11:31:41;;;;;;;1.05;1.05;;;;;;;;;;4939536;28;20035;-63
2020/12/03 11:34:09;;;;;;;0.77;0.65;;;;;;;;;;4939425;28;20087;-62
2020/12/03 11:36:37;;;;;;;0.15;0.15;;;;;;;;;;4937707;28;20113;-61
2020/12/03 11:39:04;;;;;;;0.35;0.35;;;;;;;;;;4938678;28;20069;-64
2020/12/03 11:49:37;;;;;;;0.57;0.57;;;;;;;;;;4938309;28;21566;-62
2020/12/03 11:52:12;;;;;;;0.75;0.43;;;;;;;;;;4940571;28;20463;-62
2020/12/03 11:54:38;;;;;;;0.32;0.32;;;;;;;;;;4938898;28;20038;-62
2020/12/03 11:57:06;;;;;;;0.95;0.73;;;;;;;;;;4938409;28;20481;-63
2020/12/03 11:59:33;;;;;;;0.08;0.08;;;;;;;;;;4938920;28;20133;-63
2020/12/03 12:02:08;;;;;;;0.00;0.00;;;;;;;;;;4942060;28;20022;-63
2020/12/03 12:04:54;;;;;;;0.60;0.55;;;;;;;;;;4938300;28;20041;-62
2020/12/03 12:12:21;;;;;;;0.15;0.15;;;;;;;;;;4938896;28;20086;-61
2020/12/03 12:14:47;;;;;;;0.70;0.70;;;;;;;;;;4938587;28;20027;-62
2020/12/03 12:17:17;;;;;;;0.60;0.60;;;;;;;;;;4938185;28;20103;-63
2020/12/03 12:19:43;;;;;;;0.40;0.40;;;;;;;;;;4938170;28;20050;-62
2020/12/03 12:22:13;;;;;;;0.05;0.05;;;;;;;;;;4933133;28;20030;-62
2020/12/03 12:24:42;;;;;;;0.75;0.75;;;;;;;;;;4937693;28;20217;-62
2020/12/03 12:27:14;;;;;;;0.30;0.30;;;;;;;;;;4938884;28;20502;-63
2020/12/03 12:29:43;;;;;;;1.98;1.77;;;;;;;;;;4938655;28;20506;-64
2020/12/03 12:32:09;;;;;;;0.22;0.22;;;;;;;;;;4957002;28;20208;-62
2020/12/03 12:34:36;;;;;;;3.78;1.77;;;;;;;;;;4942890;28;20042;-62
2020/12/03 12:37:05;;;;;;;0.57;0.57;;;;;;;;;;4940693;28;20026;-62
2020/12/03 12:39:34;;;;;;;0.00;0.00;;;;;;;;;;4943039;28;20051;-62
2020/12/03 12:42:03;;;;;;;0.20;0.20;;;;;;;;;;4940572;28;20243;-64
2020/12/03 12:44:31;;;;;;;0.00;0.00;;;;;;;;;;4939205;28;20549;-63
2020/12/03 12:47:02;;;;;;;0.30;0.30;;;;;;;;;;4941700;28;20037;-62
2020/12/03 12:49:28;;;;;;;0.15;0.15;;;;;;;;;;4942046;28;20030;-62
2020/12/03 12:51:53;;;;;;;0.88;0.65;;;;;;;;;;4940065;28;20489;-64
2020/12/03 12:54:23;;;;;;;0.08;0.08;;;;;;;;;;4937668;28;21170;-63
2020/12/03 12:56:49;;;;;;;0.00;0.00;;;;;;;;;;4942734;28;21556;-63
2020/12/03 12:59:15;;;;;;;0.52;0.52;;;;;;;;;;4942589;28;20031;-63
2020/12/03 13:01:44;;;;;;;0.17;0.17;;;;;;;;;;4941643;28;20419;-62
2020/12/03 13:04:15;;;;;;;0.08;0.08;;;;;;;;;;4944582;28;20089;-62
2020/12/03 13:06:43;;;;;;;0.00;0.00;;;;;;;;;;4939922;28;20323;-63
2020/12/03 13:09:11;;;;;;;0.00;0.00;;;;;;;;;;4944830;28;20035;-63
2020/12/03 13:11:39;;;;;;;2.10;0.85;;;;;;;;;;4940392;28;20304;-63
2020/12/03 13:14:09;;;;;;;0.00;0.00;;;;;;;;;;4940563;28;20218;-64
2020/12/03 13:16:38;;;;;;;0.38;0.38;;;;;;;;;;4939225;28;20075;-62
2020/12/03 13:19:04;;;;;;;4.70;0.75;;;;;;;;;;4941698;28;20074;-63
2020/12/03 13:21:32;;;;;;;0.20;0.20;;;;;;;;;;4934692;28;20035;-62
2020/12/03 13:24:01;;;;;;;0.00;0.00;;;;;;;;;;4933426;28;20141;-63
2020/12/03 13:26:27;;;;;;;0.35;0.35;;;;;;;;;;4938421;28;20031;-64
2020/12/03 13:28:56;;;;;;;4.47;0.55;;;;;;;;;;4940266;28;21902;-63
2020/12/03 13:31:23;;;;;;;0.00;0.00;;;;;;;;;;4940245;28;20022;-62
2020/12/03 13:33:51;;;;;;;0.00;0.00;;;;;;;;;;4939684;28;20391;-63
2020/12/03 13:36:18;;;;;;;0.00;0.00;;;;;;;;;;4940755;28;20031;-63
2020/12/03 13:38:49;;;;;;;0.00;0.00;;;;;;;;;;4941238;28;20042;-64
2020/12/03 13:41:22;;;;;;;0.17;0.17;;;;;;;;;;4938038;28;20034;-63
2020/12/03 13:43:47;;;;;;;0.22;0.22;;;;;;;;;;4951726;28;20107;-64
2020/12/03 13:46:18;;;;;;;0.00;0.00;;;;;;;;;;4940361;28;20042;-63
2020/12/03 13:48:44;;;;;;;0.10;0.10;;;;;;;;;;4939129;28;20030;-63
2020/12/03 13:51:18;;;;;;;0.20;0.20;;;;;;;;;;4944205;28;20793;-64
2020/12/03 13:53:43;;;;;;;0.00;0.00;;;;;;;;;;4936182;28;20122;-63
2020/12/03 13:56:09;;;;;;;1.55;1.35;;;;;;;;;;4940569;28;20048;-63
2020/12/03 13:58:38;;;;;;;3.00;1.45;;;;;;;;;;4937425;28;20038;-65
2020/12/03 14:01:03;;;;;;;2.05;1.27;;;;;;;;;;4939869;28;20049;-63
2020/12/03 14:03:33;;;;;;;0.00;0.00;;;;;;;;;;4928312;28;20074;-64
2020/12/03 14:06:07;;;;;;;0.00;0.00;;;;;;;;;;4939956;28;20500;-63
2020/12/03 14:08:35;;;;;;;0.00;0.00;;;;;;;;;;4940826;28;21615;-63
2020/12/03 14:11:01;;;;;;;0.75;0.43;;;;;;;;;;4927826;28;20031;-63
2020/12/03 14:13:33;;;;;;;0.10;0.10;;;;;;;;;;4954723;28;20164;-62
2020/12/03 14:15:59;;;;;;;1.00;1.00;;;;;;;;;;4942861;28;20588;-63
2020/12/03 14:18:25;;;;;;;0.00;0.00;;;;;;;;;;4939713;28;20662;-63
2020/12/03 14:20:50;;;;;;;0.20;0.20;;;;;;;;;;4938448;28;20053;-63
2020/12/03 14:23:18;;;;;;;0.93;0.73;;;;;;;;;;4938806;28;20043;-63
2020/12/03 14:25:46;;;;;;;0.00;0.00;;;;;;;;;;4938994;28;20122;-62
2020/12/03 14:28:14;;;;;;;0.00;0.00;;;;;;;;;;4921737;28;20452;-63
2020/12/03 14:30:40;;;;;;;0.20;0.20;;;;;;;;;;4939754;28;20031;-64
2020/12/03 14:33:05;;;;;;;0.03;0.03;;;;;;;;;;4941121;28;20053;-63
2020/12/03 14:35:33;;;;;;;0.00;0.00;;;;;;;;;;4938674;28;20027;-63
2020/12/03 14:38:00;;;;;;;0.00;0.00;;;;;;;;;;4939920;28;21039;-64
2020/12/03 14:40:26;;;;;;;0.30;0.30;;;;;;;;;;4937997;28;20035;-63
2020/12/03 14:42:52;;;;;;;0.00;0.00;;;;;;;;;;4940145;28;20339;-63
2020/12/03 14:45:23;;;;;;;0.05;0.05;;;;;;;;;;4953715;28;20418;-63
2020/12/03 14:47:51;;;;;;;0.52;0.52;;;;;;;;;;4938965;28;20043;-63
2020/12/03 14:50:20;;;;;;;0.00;0.00;;;;;;;;;;4939043;28;20074;-65
2020/12/03 14:52:59;;;;;;;0.00;0.00;;;;;;;;;;4937440;28;20516;-63
2020/12/03 14:55:31;;;;;;;0.15;0.15;;;;;;;;;;4937159;28;20484;-62
2020/12/03 14:58:01;;;;;;;0.00;0.00;;;;;;;;;;4951993;28;20023;-64
2020/12/03 15:00:29;;;;;;;0.38;0.38;;;;;;;;;;4939920;28;20073;-63
2020/12/03 15:02:55;;;;;;;0.15;0.15;;;;;;;;;;4940061;28;20106;-64
2020/12/03 15:05:23;;;;;;;0.20;0.20;;;;;;;;;;4942550;28;20121;-63
2020/12/03 15:07:53;;;;;;;0.95;0.65;;;;;;;;;;4939340;28;20034;-61
2020/12/03 15:10:31;;;;;;;0.82;0.82;;;;;;;;;;4943966;28;20435;-61
2020/12/03 15:12:56;;;;;;;0.20;0.20;;;;;;;;;;4939423;28;20035;-62
2020/12/03 15:15:25;;;;;;;0.08;0.08;;;;;;;;;;4935967;28;20189;-62
2020/12/03 15:17:52;;;;;;;0.00;0.00;;;;;;;;;;4951625;28;20035;-63
2020/12/03 15:20:20;;;;;;;0.35;0.35;;;;;;;;;;4939218;28;20035;-62
2020/12/03 15:22:51;;;;;;;0.00;0.00;;;;;;;;;;4933992;28;20490;-62
2020/12/03 15:25:18;;;;;;;0.38;0.38;;;;;;;;;;4937293;28;20089;-62
2020/12/03 15:27:46;;;;;;;5.63;1.73;;;;;;;;;;4933519;28;20528;-62
2020/12/03 15:30:14;;;;;;;0.03;0.03;;;;;;;;;;4942564;28;20130;-62
2020/12/03 15:32:45;;;;;;;0.80;0.80;;;;;;;;;;4938842;28;21707;-62
2020/12/03 15:35:10;;;;;;;0.22;0.22;;;;;;;;;;4938897;28;20061;-63
2020/12/03 15:37:38;;;;;;;0.28;0.28;;;;;;;;;;4937554;28;20035;-63